sensor_id;sensor_type;location;lat;lon;timestamp;P1;durP1;ratioP1;P2;durP2;ratioP2
52136;SDS011;69622;49.570;10.986;2024-02-26T00:00:04;4.03;;;2.20;;
52136;SDS011;69622;49.570;10.986;2024-02-26T00:03:10;3.83;;;1.83;;
52136;SDS011;69622;49.570;10.986;2024-02-26T00:06:11;3.85;;;2.05;;
52136;SDS011;69622;49.570;10.986;2024-02-26T00:09:13;3.13;;;1.80;;
52136;SDS011;69622;49.570;10.986;2024-02-26T00:12:14;3.83;;;2.10;;
52136;SDS011;69622;49.570;10.986;2024-02-26T00:15:16;3.22;;;1.80;;
52136;SDS011;69622;49.570;10.986;2024-02-26T00:18:17;2.85;;;1.83;;
52136;SDS011;69622;49.570;10.986;2024-02-26T00:21:19;4.18;;;2.13;;
52136;SDS011;69622;49.570;10.986;2024-02-26T00:24:21;5.35;;;1.90;;
52136;SDS011;69622;49.570;10.986;2024-02-26T00:27:22;4.65;;;2.05;;
52136;SDS011;69622;49.570;10.986;2024-02-26T00:30:24;4.25;;;2.30;;
52136;SDS011;69622;49.570;10.986;2024-02-26T00:33:26;5.20;;;2.33;;
52136;SDS011;69622;49.570;10.986;2024-02-26T00:36:27;5.45;;;1.77;;
52136;SDS011;69622;49.570;10.986;2024-02-26T00:39:29;3.45;;;2.15;;
52136;SDS011;69622;49.570;10.986;2024-02-26T00:42:30;6.13;;;2.65;;
52136;SDS011;69622;49.570;10.986;2024-02-26T00:45:32;2.88;;;1.70;;
52136;SDS011;69622;49.570;10.986;2024-02-26T00:48:33;5.35;;;2.75;;
52136;SDS011;69622;49.570;10.986;2024-02-26T00:51:35;3.67;;;2.03;;
52136;SDS011;69622;49.570;10.986;2024-02-26T00:54:36;4.35;;;2.03;;
52136;SDS011;69622;49.570;10.986;2024-02-26T00:57:38;4.40;;;2.25;;
52136;SDS011;69622;49.570;10.986;2024-02-26T01:00:41;4.60;;;1.92;;
52136;SDS011;69622;49.570;10.986;2024-02-26T01:03:43;3.90;;;2.08;;
52136;SDS011;69622;49.570;10.986;2024-02-26T01:06:44;4.10;;;1.75;;
52136;SDS011;69622;49.570;10.986;2024-02-26T01:09:46;5.55;;;1.65;;
52136;SDS011;69622;49.570;10.986;2024-02-26T01:12:48;3.40;;;1.92;;
52136;SDS011;69622;49.570;10.986;2024-02-26T01:15:49;3.22;;;1.55;;
52136;SDS011;69622;49.570;10.986;2024-02-26T01:18:50;4.22;;;1.77;;
52136;SDS011;69622;49.570;10.986;2024-02-26T01:21:52;4.25;;;1.80;;
52136;SDS011;69622;49.570;10.986;2024-02-26T01:24:54;2.58;;;1.67;;
52136;SDS011;69622;49.570;10.986;2024-02-26T01:27:56;2.17;;;1.40;;
52136;SDS011;69622;49.570;10.986;2024-02-26T01:30:57;4.32;;;1.67;;
52136;SDS011;69622;49.570;10.986;2024-02-26T01:33:59;4.85;;;1.83;;
52136;SDS011;69622;49.570;10.986;2024-02-26T01:37:02;3.33;;;1.25;;
52136;SDS011;69622;49.570;10.986;2024-02-26T01:40:03;4.25;;;1.88;;
52136;SDS011;69622;49.570;10.986;2024-02-26T01:43:06;4.53;;;1.98;;
52136;SDS011;69622;49.570;10.986;2024-02-26T01:46:11;3.00;;;1.38;;
52136;SDS011;69622;49.570;10.986;2024-02-26T01:49:15;2.28;;;1.33;;
52136;SDS011;69622;49.570;10.986;2024-02-26T01:52:17;5.03;;;1.58;;
52136;SDS011;69622;49.570;10.986;2024-02-26T01:55:20;5.18;;;1.90;;
52136;SDS011;69622;49.570;10.986;2024-02-26T01:58:23;3.90;;;2.00;;
52136;SDS011;69622;49.570;10.986;2024-02-26T02:01:25;4.85;;;1.85;;
52136;SDS011;69622;49.570;10.986;2024-02-26T02:04:28;3.55;;;1.70;;
52136;SDS011;69622;49.570;10.986;2024-02-26T02:07:29;3.45;;;1.83;;
52136;SDS011;69622;49.570;10.986;2024-02-26T02:10:31;4.30;;;1.67;;
52136;SDS011;69622;49.570;10.986;2024-02-26T02:13:32;3.42;;;1.70;;
52136;SDS011;69622;49.570;10.986;2024-02-26T02:16:34;3.33;;;1.90;;
52136;SDS011;69622;49.570;10.986;2024-02-26T02:19:35;4.63;;;2.20;;
52136;SDS011;69622;49.570;10.986;2024-02-26T02:22:37;5.07;;;2.22;;
52136;SDS011;69622;49.570;10.986;2024-02-26T02:25:39;6.93;;;2.13;;
52136;SDS011;69622;49.570;10.986;2024-02-26T02:28:40;5.05;;;2.50;;
52136;SDS011;69622;49.570;10.986;2024-02-26T02:31:42;6.28;;;1.80;;
52136;SDS011;69622;49.570;10.986;2024-02-26T02:34:44;3.95;;;2.08;;
52136;SDS011;69622;49.570;10.986;2024-02-26T02:37:46;3.38;;;1.95;;
52136;SDS011;69622;49.570;10.986;2024-02-26T02:40:48;6.93;;;2.92;;
52136;SDS011;69622;49.570;10.986;2024-02-26T02:43:49;5.35;;;3.00;;
52136;SDS011;69622;49.570;10.986;2024-02-26T02:46:51;6.53;;;3.03;;
52136;SDS011;69622;49.570;10.986;2024-02-26T02:49:54;4.85;;;2.53;;
52136;SDS011;69622;49.570;10.986;2024-02-26T02:52:56;3.35;;;1.92;;
52136;SDS011;69622;49.570;10.986;2024-02-26T02:55:57;6.55;;;2.35;;
52136;SDS011;69622;49.570;10.986;2024-02-26T02:58:58;4.53;;;2.05;;
52136;SDS011;69622;49.570;10.986;2024-02-26T03:02:00;5.88;;;2.75;;
52136;SDS011;69622;49.570;10.986;2024-02-26T03:05:02;5.22;;;2.25;;
52136;SDS011;69622;49.570;10.986;2024-02-26T03:08:04;4.47;;;2.20;;
52136;SDS011;69622;49.570;10.986;2024-02-26T03:11:05;4.47;;;2.00;;
52136;SDS011;69622;49.570;10.986;2024-02-26T03:14:07;3.25;;;2.00;;
52136;SDS011;69622;49.570;10.986;2024-02-26T03:17:09;3.75;;;1.95;;
52136;SDS011;69622;49.570;10.986;2024-02-26T03:20:11;4.32;;;2.05;;
52136;SDS011;69622;49.570;10.986;2024-02-26T03:23:12;5.00;;;2.33;;
52136;SDS011;69622;49.570;10.986;2024-02-26T03:26:16;5.60;;;2.35;;
52136;SDS011;69622;49.570;10.986;2024-02-26T03:29:18;4.03;;;1.58;;
52136;SDS011;69622;49.570;10.986;2024-02-26T03:32:20;5.57;;;2.53;;
52136;SDS011;69622;49.570;10.986;2024-02-26T03:35:21;3.35;;;2.42;;
52136;SDS011;69622;49.570;10.986;2024-02-26T03:38:22;5.18;;;3.38;;
52136;SDS011;69622;49.570;10.986;2024-02-26T03:41:24;7.72;;;4.00;;
52136;SDS011;69622;49.570;10.986;2024-02-26T03:44:26;7.57;;;3.55;;
52136;SDS011;69622;49.570;10.986;2024-02-26T03:47:27;7.47;;;2.88;;
52136;SDS011;69622;49.570;10.986;2024-02-26T03:50:28;4.45;;;2.55;;
52136;SDS011;69622;49.570;10.986;2024-02-26T03:53:30;6.85;;;2.65;;
52136;SDS011;69622;49.570;10.986;2024-02-26T03:56:31;7.82;;;2.65;;
52136;SDS011;69622;49.570;10.986;2024-02-26T03:59:33;6.82;;;2.55;;
52136;SDS011;69622;49.570;10.986;2024-02-26T04:02:34;3.58;;;2.10;;
52136;SDS011;69622;49.570;10.986;2024-02-26T04:05:36;5.45;;;2.10;;
52136;SDS011;69622;49.570;10.986;2024-02-26T04:08:37;6.18;;;2.33;;
52136;SDS011;69622;49.570;10.986;2024-02-26T04:11:39;4.97;;;2.42;;
52136;SDS011;69622;49.570;10.986;2024-02-26T04:14:40;6.53;;;2.05;;
52136;SDS011;69622;49.570;10.986;2024-02-26T04:17:42;4.53;;;2.38;;
52136;SDS011;69622;49.570;10.986;2024-02-26T04:20:43;3.67;;;1.95;;
52136;SDS011;69622;49.570;10.986;2024-02-26T04:23:45;3.72;;;2.30;;
52136;SDS011;69622;49.570;10.986;2024-02-26T04:26:46;3.85;;;2.10;;
52136;SDS011;69622;49.570;10.986;2024-02-26T04:29:48;4.68;;;2.25;;
52136;SDS011;69622;49.570;10.986;2024-02-26T04:32:50;3.25;;;2.00;;
52136;SDS011;69622;49.570;10.986;2024-02-26T04:35:51;5.55;;;2.25;;
52136;SDS011;69622;49.570;10.986;2024-02-26T04:38:52;4.93;;;2.35;;
52136;SDS011;69622;49.570;10.986;2024-02-26T04:41:56;6.50;;;2.92;;
52136;SDS011;69622;49.570;10.986;2024-02-26T04:44:58;5.03;;;2.45;;
52136;SDS011;69622;49.570;10.986;2024-02-26T04:47:59;5.97;;;2.55;;
52136;SDS011;69622;49.570;10.986;2024-02-26T04:51:02;5.13;;;2.45;;
52136;SDS011;69622;49.570;10.986;2024-02-26T04:54:04;8.55;;;2.53;;
52136;SDS011;69622;49.570;10.986;2024-02-26T04:57:06;3.30;;;2.15;;
52136;SDS011;69622;49.570;10.986;2024-02-26T05:00:07;7.20;;;3.05;;
52136;SDS011;69622;49.570;10.986;2024-02-26T05:03:10;4.45;;;2.30;;
52136;SDS011;69622;49.570;10.986;2024-02-26T05:06:16;4.85;;;2.63;;
52136;SDS011;69622;49.570;10.986;2024-02-26T05:09:18;4.15;;;2.35;;
52136;SDS011;69622;49.570;10.986;2024-02-26T05:12:20;4.47;;;2.25;;
52136;SDS011;69622;49.570;10.986;2024-02-26T05:15:21;6.78;;;2.67;;
52136;SDS011;69622;49.570;10.986;2024-02-26T05:18:23;4.53;;;2.45;;
52136;SDS011;69622;49.570;10.986;2024-02-26T05:21:24;4.50;;;2.30;;
52136;SDS011;69622;49.570;10.986;2024-02-26T05:24:26;4.85;;;2.70;;
52136;SDS011;69622;49.570;10.986;2024-02-26T05:27:27;4.38;;;2.53;;
52136;SDS011;69622;49.570;10.986;2024-02-26T05:30:29;6.90;;;2.55;;
52136;SDS011;69622;49.570;10.986;2024-02-26T05:33:30;5.43;;;2.40;;
52136;SDS011;69622;49.570;10.986;2024-02-26T05:36:32;5.25;;;2.83;;
52136;SDS011;69622;49.570;10.986;2024-02-26T05:39:34;6.00;;;2.33;;
52136;SDS011;69622;49.570;10.986;2024-02-26T05:42:36;4.65;;;2.60;;
52136;SDS011;69622;49.570;10.986;2024-02-26T05:45:38;6.90;;;3.13;;
52136;SDS011;69622;49.570;10.986;2024-02-26T05:48:39;4.95;;;2.28;;
52136;SDS011;69622;49.570;10.986;2024-02-26T05:51:41;4.35;;;2.35;;
52136;SDS011;69622;49.570;10.986;2024-02-26T05:54:42;6.10;;;2.15;;
52136;SDS011;69622;49.570;10.986;2024-02-26T05:57:44;4.40;;;3.00;;
52136;SDS011;69622;49.570;10.986;2024-02-26T06:00:45;3.95;;;2.15;;
52136;SDS011;69622;49.570;10.986;2024-02-26T06:03:47;7.18;;;2.15;;
52136;SDS011;69622;49.570;10.986;2024-02-26T06:06:49;4.55;;;2.25;;
52136;SDS011;69622;49.570;10.986;2024-02-26T06:09:51;5.22;;;2.80;;
52136;SDS011;69622;49.570;10.986;2024-02-26T06:12:52;4.75;;;2.63;;
52136;SDS011;69622;49.570;10.986;2024-02-26T06:15:54;5.72;;;3.05;;
52136;SDS011;69622;49.570;10.986;2024-02-26T06:18:55;4.85;;;2.65;;
52136;SDS011;69622;49.570;10.986;2024-02-26T06:21:57;6.03;;;2.60;;
52136;SDS011;69622;49.570;10.986;2024-02-26T06:24:59;6.45;;;2.85;;
52136;SDS011;69622;49.570;10.986;2024-02-26T06:28:00;5.68;;;2.50;;
52136;SDS011;69622;49.570;10.986;2024-02-26T06:31:02;7.85;;;2.22;;
52136;SDS011;69622;49.570;10.986;2024-02-26T06:34:04;5.32;;;2.63;;
52136;SDS011;69622;49.570;10.986;2024-02-26T06:37:06;3.20;;;1.98;;
52136;SDS011;69622;49.570;10.986;2024-02-26T06:40:07;5.22;;;1.90;;
52136;SDS011;69622;49.570;10.986;2024-02-26T06:43:10;5.05;;;2.28;;
52136;SDS011;69622;49.570;10.986;2024-02-26T06:46:11;5.38;;;2.33;;
52136;SDS011;69622;49.570;10.986;2024-02-26T06:49:13;7.75;;;2.83;;
52136;SDS011;69622;49.570;10.986;2024-02-26T06:52:14;3.78;;;2.00;;
52136;SDS011;69622;49.570;10.986;2024-02-26T06:55:16;5.07;;;2.83;;
52136;SDS011;69622;49.570;10.986;2024-02-26T06:58:17;5.07;;;2.45;;
52136;SDS011;69622;49.570;10.986;2024-02-26T07:01:19;6.50;;;2.28;;
52136;SDS011;69622;49.570;10.986;2024-02-26T07:04:20;4.55;;;2.30;;
52136;SDS011;69622;49.570;10.986;2024-02-26T07:07:22;6.20;;;2.35;;
52136;SDS011;69622;49.570;10.986;2024-02-26T07:10:24;7.30;;;2.50;;
52136;SDS011;69622;49.570;10.986;2024-02-26T07:13:26;5.65;;;2.83;;
52136;SDS011;69622;49.570;10.986;2024-02-26T07:16:27;4.43;;;1.92;;
52136;SDS011;69622;49.570;10.986;2024-02-26T07:19:29;2.22;;;1.58;;
52136;SDS011;69622;49.570;10.986;2024-02-26T07:22:30;4.47;;;2.10;;
52136;SDS011;69622;49.570;10.986;2024-02-26T07:25:32;3.53;;;1.90;;
52136;SDS011;69622;49.570;10.986;2024-02-26T07:28:33;4.75;;;2.60;;
52136;SDS011;69622;49.570;10.986;2024-02-26T07:31:35;4.35;;;2.35;;
52136;SDS011;69622;49.570;10.986;2024-02-26T07:34:36;9.38;;;4.15;;
52136;SDS011;69622;49.570;10.986;2024-02-26T07:37:40;4.55;;;3.03;;
52136;SDS011;69622;49.570;10.986;2024-02-26T07:40:41;5.13;;;2.88;;
52136;SDS011;69622;49.570;10.986;2024-02-26T07:43:59;4.50;;;2.25;;
52136;SDS011;69622;49.570;10.986;2024-02-26T07:47:01;3.78;;;2.13;;
52136;SDS011;69622;49.570;10.986;2024-02-26T07:50:02;3.80;;;2.03;;
52136;SDS011;69622;49.570;10.986;2024-02-26T07:53:04;4.28;;;2.20;;
52136;SDS011;69622;49.570;10.986;2024-02-26T07:56:05;4.43;;;2.17;;
52136;SDS011;69622;49.570;10.986;2024-02-26T07:59:07;4.78;;;1.90;;
52136;SDS011;69622;49.570;10.986;2024-02-26T08:02:08;4.72;;;2.10;;
52136;SDS011;69622;49.570;10.986;2024-02-26T08:05:10;6.47;;;2.80;;
52136;SDS011;69622;49.570;10.986;2024-02-26T08:08:11;3.35;;;1.80;;
52136;SDS011;69622;49.570;10.986;2024-02-26T08:11:16;3.08;;;1.85;;
52136;SDS011;69622;49.570;10.986;2024-02-26T08:14:17;3.47;;;1.80;;
52136;SDS011;69622;49.570;10.986;2024-02-26T08:17:19;4.15;;;1.80;;
52136;SDS011;69622;49.570;10.986;2024-02-26T08:20:20;3.50;;;1.40;;
52136;SDS011;69622;49.570;10.986;2024-02-26T08:23:21;2.90;;;1.48;;
52136;SDS011;69622;49.570;10.986;2024-02-26T08:26:23;2.95;;;1.90;;
52136;SDS011;69622;49.570;10.986;2024-02-26T08:29:25;4.28;;;2.13;;
52136;SDS011;69622;49.570;10.986;2024-02-26T08:32:26;4.03;;;1.77;;
52136;SDS011;69622;49.570;10.986;2024-02-26T08:35:28;6.47;;;2.97;;
52136;SDS011;69622;49.570;10.986;2024-02-26T08:38:30;3.67;;;2.20;;
52136;SDS011;69622;49.570;10.986;2024-02-26T08:41:31;4.22;;;1.88;;
52136;SDS011;69622;49.570;10.986;2024-02-26T08:44:33;5.72;;;1.73;;
52136;SDS011;69622;49.570;10.986;2024-02-26T08:47:34;4.03;;;2.13;;
52136;SDS011;69622;49.570;10.986;2024-02-26T08:50:36;2.72;;;1.67;;
52136;SDS011;69622;49.570;10.986;2024-02-26T08:53:37;4.47;;;2.55;;
52136;SDS011;69622;49.570;10.986;2024-02-26T08:56:44;5.00;;;2.33;;
52136;SDS011;69622;49.570;10.986;2024-02-26T08:59:45;3.25;;;1.60;;
52136;SDS011;69622;49.570;10.986;2024-02-26T09:02:47;4.00;;;1.85;;
52136;SDS011;69622;49.570;10.986;2024-02-26T09:05:50;5.50;;;2.13;;
52136;SDS011;69622;49.570;10.986;2024-02-26T09:08:51;4.20;;;2.17;;
52136;SDS011;69622;49.570;10.986;2024-02-26T09:11:53;3.35;;;1.50;;
52136;SDS011;69622;49.570;10.986;2024-02-26T09:14:56;2.83;;;1.88;;
52136;SDS011;69622;49.570;10.986;2024-02-26T09:17:58;3.83;;;2.40;;
52136;SDS011;69622;49.570;10.986;2024-02-26T09:21:03;2.22;;;1.33;;
52136;SDS011;69622;49.570;10.986;2024-02-26T09:27:08;3.80;;;1.73;;
52136;SDS011;69622;49.570;10.986;2024-02-26T09:30:10;6.80;;;1.75;;
52136;SDS011;69622;49.570;10.986;2024-02-26T09:33:13;3.13;;;1.38;;
52136;SDS011;69622;49.570;10.986;2024-02-26T09:36:15;3.25;;;1.85;;
52136;SDS011;69622;49.570;10.986;2024-02-26T09:39:17;3.25;;;1.70;;
52136;SDS011;69622;49.570;10.986;2024-02-26T09:42:24;2.67;;;1.38;;
52136;SDS011;69622;49.570;10.986;2024-02-26T09:45:27;3.10;;;1.40;;
52136;SDS011;69622;49.570;10.986;2024-02-26T09:48:29;3.03;;;1.30;;
52136;SDS011;69622;49.570;10.986;2024-02-26T09:51:32;2.53;;;1.40;;
52136;SDS011;69622;49.570;10.986;2024-02-26T09:54:34;3.50;;;1.70;;
52136;SDS011;69622;49.570;10.986;2024-02-26T09:57:36;3.70;;;1.75;;
52136;SDS011;69622;49.570;10.986;2024-02-26T10:00:38;4.28;;;2.00;;
52136;SDS011;69622;49.570;10.986;2024-02-26T10:03:42;2.63;;;1.30;;
52136;SDS011;69622;49.570;10.986;2024-02-26T10:06:45;2.92;;;1.35;;
52136;SDS011;69622;49.570;10.986;2024-02-26T10:09:48;3.03;;;1.90;;
52136;SDS011;69622;49.570;10.986;2024-02-26T10:12:49;2.72;;;2.17;;
52136;SDS011;69622;49.570;10.986;2024-02-26T10:15:51;2.95;;;1.55;;
52136;SDS011;69622;49.570;10.986;2024-02-26T10:18:53;2.30;;;1.48;;
52136;SDS011;69622;49.570;10.986;2024-02-26T10:22:00;3.42;;;1.95;;
52136;SDS011;69622;49.570;10.986;2024-02-26T10:25:03;2.70;;;1.42;;
52136;SDS011;69622;49.570;10.986;2024-02-26T10:28:05;3.40;;;1.80;;
52136;SDS011;69622;49.570;10.986;2024-02-26T10:31:08;3.20;;;1.27;;
52136;SDS011;69622;49.570;10.986;2024-02-26T10:34:10;4.20;;;2.03;;
52136;SDS011;69622;49.570;10.986;2024-02-26T10:37:12;3.05;;;1.40;;
52136;SDS011;69622;49.570;10.986;2024-02-26T10:40:15;2.97;;;1.40;;
52136;SDS011;69622;49.570;10.986;2024-02-26T10:43:17;5.80;;;1.80;;
52136;SDS011;69622;49.570;10.986;2024-02-26T10:46:19;4.47;;;2.40;;
52136;SDS011;69622;49.570;10.986;2024-02-26T10:49:21;3.88;;;1.55;;
52136;SDS011;69622;49.570;10.986;2024-02-26T10:52:24;3.83;;;1.65;;
52136;SDS011;69622;49.570;10.986;2024-02-26T10:55:27;3.60;;;1.40;;
52136;SDS011;69622;49.570;10.986;2024-02-26T10:58:29;2.50;;;1.48;;
52136;SDS011;69622;49.570;10.986;2024-02-26T11:01:32;3.85;;;1.67;;
52136;SDS011;69622;49.570;10.986;2024-02-26T11:04:38;3.03;;;1.75;;
52136;SDS011;69622;49.570;10.986;2024-02-26T11:07:40;3.35;;;2.15;;
52136;SDS011;69622;49.570;10.986;2024-02-26T11:10:42;2.75;;;1.67;;
52136;SDS011;69622;49.570;10.986;2024-02-26T11:13:45;3.38;;;1.60;;
52136;SDS011;69622;49.570;10.986;2024-02-26T11:16:52;2.63;;;1.60;;
52136;SDS011;69622;49.570;10.986;2024-02-26T11:19:56;2.65;;;1.52;;
52136;SDS011;69622;49.570;10.986;2024-02-26T11:22:59;3.22;;;1.80;;
52136;SDS011;69622;49.570;10.986;2024-02-26T11:26:00;2.33;;;1.30;;
52136;SDS011;69622;49.570;10.986;2024-02-26T11:29:03;2.97;;;1.65;;
52136;SDS011;69622;49.570;10.986;2024-02-26T11:32:06;3.25;;;1.95;;
52136;SDS011;69622;49.570;10.986;2024-02-26T11:35:07;4.15;;;1.67;;
52136;SDS011;69622;49.570;10.986;2024-02-26T11:38:19;4.78;;;1.60;;
52136;SDS011;69622;49.570;10.986;2024-02-26T11:41:25;2.83;;;1.58;;
52136;SDS011;69622;49.570;10.986;2024-02-26T11:44:29;2.70;;;1.30;;
52136;SDS011;69622;49.570;10.986;2024-02-26T11:47:34;3.60;;;2.00;;
52136;SDS011;69622;49.570;10.986;2024-02-26T11:50:39;3.42;;;1.50;;
52136;SDS011;69622;49.570;10.986;2024-02-26T11:53:47;2.53;;;1.38;;
52136;SDS011;69622;49.570;10.986;2024-02-26T11:56:51;2.08;;;1.33;;
52136;SDS011;69622;49.570;10.986;2024-02-26T11:59:57;2.00;;;1.40;;
52136;SDS011;69622;49.570;10.986;2024-02-26T12:03:23;1.50;;;0.93;;
52136;SDS011;69622;49.570;10.986;2024-02-26T12:06:25;2.30;;;1.30;;
52136;SDS011;69622;49.570;10.986;2024-02-26T12:09:30;4.70;;;1.87;;
52136;SDS011;69622;49.570;10.986;2024-02-26T12:12:32;3.67;;;1.38;;
52136;SDS011;69622;49.570;10.986;2024-02-26T12:15:39;2.03;;;1.23;;
52136;SDS011;69622;49.570;10.986;2024-02-26T12:18:44;1.73;;;1.00;;
52136;SDS011;69622;49.570;10.986;2024-02-26T12:21:48;2.40;;;1.30;;
52136;SDS011;69622;49.570;10.986;2024-02-26T12:24:59;3.78;;;1.55;;
52136;SDS011;69622;49.570;10.986;2024-02-26T12:28:02;3.80;;;1.70;;
52136;SDS011;69622;49.570;10.986;2024-02-26T12:31:04;1.65;;;1.10;;
52136;SDS011;69622;49.570;10.986;2024-02-26T12:34:06;3.35;;;1.30;;
52136;SDS011;69622;49.570;10.986;2024-02-26T12:37:11;2.03;;;0.88;;
52136;SDS011;69622;49.570;10.986;2024-02-26T12:40:12;10.88;;;1.55;;
52136;SDS011;69622;49.570;10.986;2024-02-26T12:43:14;2.75;;;1.27;;
52136;SDS011;69622;49.570;10.986;2024-02-26T12:46:16;2.15;;;1.30;;
52136;SDS011;69622;49.570;10.986;2024-02-26T12:49:18;2.88;;;1.30;;
52136;SDS011;69622;49.570;10.986;2024-02-26T12:52:20;2.63;;;1.08;;
52136;SDS011;69622;49.570;10.986;2024-02-26T12:55:23;2.38;;;1.35;;
52136;SDS011;69622;49.570;10.986;2024-02-26T12:58:24;2.42;;;1.40;;
52136;SDS011;69622;49.570;10.986;2024-02-26T13:01:26;3.72;;;1.17;;
52136;SDS011;69622;49.570;10.986;2024-02-26T13:04:29;1.95;;;1.10;;
52136;SDS011;69622;49.570;10.986;2024-02-26T13:07:32;2.70;;;1.25;;
52136;SDS011;69622;49.570;10.986;2024-02-26T13:10:34;2.45;;;1.15;;
52136;SDS011;69622;49.570;10.986;2024-02-26T13:13:36;1.60;;;0.93;;
52136;SDS011;69622;49.570;10.986;2024-02-26T13:16:37;1.77;;;0.82;;
52136;SDS011;69622;49.570;10.986;2024-02-26T13:19:48;1.50;;;0.82;;
52136;SDS011;69622;49.570;10.986;2024-02-26T13:22:50;1.75;;;1.10;;
52136;SDS011;69622;49.570;10.986;2024-02-26T13:25:55;1.85;;;1.10;;
52136;SDS011;69622;49.570;10.986;2024-02-26T13:29:01;1.55;;;0.95;;
52136;SDS011;69622;49.570;10.986;2024-02-26T13:32:04;1.80;;;1.10;;
52136;SDS011;69622;49.570;10.986;2024-02-26T13:35:11;2.25;;;1.35;;
52136;SDS011;69622;49.570;10.986;2024-02-26T13:38:13;1.92;;;1.27;;
52136;SDS011;69622;49.570;10.986;2024-02-26T13:41:15;1.95;;;0.90;;
52136;SDS011;69622;49.570;10.986;2024-02-26T13:44:16;1.60;;;0.73;;
52136;SDS011;69622;49.570;10.986;2024-02-26T13:47:18;1.70;;;1.33;;
52136;SDS011;69622;49.570;10.986;2024-02-26T13:50:19;1.75;;;0.80;;
52136;SDS011;69622;49.570;10.986;2024-02-26T13:53:24;1.30;;;0.75;;
52136;SDS011;69622;49.570;10.986;2024-02-26T13:56:25;1.10;;;0.80;;
52136;SDS011;69622;49.570;10.986;2024-02-26T13:59:27;1.15;;;0.82;;
52136;SDS011;69622;49.570;10.986;2024-02-26T14:02:30;1.92;;;0.85;;
52136;SDS011;69622;49.570;10.986;2024-02-26T14:05:32;2.30;;;1.30;;
52136;SDS011;69622;49.570;10.986;2024-02-26T14:08:33;0.82;;;0.60;;
52136;SDS011;69622;49.570;10.986;2024-02-26T14:11:35;1.02;;;0.77;;
52136;SDS011;69622;49.570;10.986;2024-02-26T14:14:37;0.93;;;0.60;;
52136;SDS011;69622;49.570;10.986;2024-02-26T14:17:40;1.10;;;0.73;;
52136;SDS011;69622;49.570;10.986;2024-02-26T14:20:42;1.15;;;0.50;;
52136;SDS011;69622;49.570;10.986;2024-02-26T14:23:45;1.92;;;1.25;;
52136;SDS011;69622;49.570;10.986;2024-02-26T14:26:47;0.75;;;0.50;;
52136;SDS011;69622;49.570;10.986;2024-02-26T14:29:48;1.52;;;0.60;;
52136;SDS011;69622;49.570;10.986;2024-02-26T14:32:50;1.35;;;0.80;;
52136;SDS011;69622;49.570;10.986;2024-02-26T14:35:52;1.13;;;0.65;;
52136;SDS011;69622;49.570;10.986;2024-02-26T14:38:53;1.30;;;0.77;;
52136;SDS011;69622;49.570;10.986;2024-02-26T14:41:55;1.90;;;0.77;;
52136;SDS011;69622;49.570;10.986;2024-02-26T14:44:58;1.38;;;0.60;;
52136;SDS011;69622;49.570;10.986;2024-02-26T14:48:01;2.22;;;0.80;;
52136;SDS011;69622;49.570;10.986;2024-02-26T14:51:02;1.00;;;0.60;;
52136;SDS011;69622;49.570;10.986;2024-02-26T14:54:04;1.98;;;0.60;;
52136;SDS011;69622;49.570;10.986;2024-02-26T14:57:05;2.10;;;1.05;;
52136;SDS011;69622;49.570;10.986;2024-02-26T15:00:08;2.00;;;1.05;;
52136;SDS011;69622;49.570;10.986;2024-02-26T15:03:11;1.52;;;0.77;;
52136;SDS011;69622;49.570;10.986;2024-02-26T15:06:12;4.32;;;0.90;;
52136;SDS011;69622;49.570;10.986;2024-02-26T15:09:14;3.00;;;1.88;;
52136;SDS011;69622;49.570;10.986;2024-02-26T15:12:15;2.50;;;1.38;;
52136;SDS011;69622;49.570;10.986;2024-02-26T15:15:19;3.40;;;1.17;;
52136;SDS011;69622;49.570;10.986;2024-02-26T15:18:20;2.72;;;1.58;;
52136;SDS011;69622;49.570;10.986;2024-02-26T15:21:22;2.53;;;1.10;;
52136;SDS011;69622;49.570;10.986;2024-02-26T15:24:23;4.47;;;1.27;;
52136;SDS011;69622;49.570;10.986;2024-02-26T15:27:25;1.48;;;1.00;;
52136;SDS011;69622;49.570;10.986;2024-02-26T15:30:26;1.33;;;0.88;;
52136;SDS011;69622;49.570;10.986;2024-02-26T15:33:31;1.48;;;0.98;;
52136;SDS011;69622;49.570;10.986;2024-02-26T15:36:33;3.63;;;1.30;;
52136;SDS011;69622;49.570;10.986;2024-02-26T15:39:35;2.67;;;0.77;;
52136;SDS011;69622;49.570;10.986;2024-02-26T15:42:37;1.85;;;0.93;;
52136;SDS011;69622;49.570;10.986;2024-02-26T15:45:39;2.95;;;1.85;;
52136;SDS011;69622;49.570;10.986;2024-02-26T15:48:40;2.28;;;1.25;;
52136;SDS011;69622;49.570;10.986;2024-02-26T15:51:42;2.03;;;0.90;;
52136;SDS011;69622;49.570;10.986;2024-02-26T15:54:44;2.45;;;0.73;;
52136;SDS011;69622;49.570;10.986;2024-02-26T15:57:46;1.73;;;1.02;;
52136;SDS011;69622;49.570;10.986;2024-02-26T16:00:47;1.77;;;0.98;;
52136;SDS011;69622;49.570;10.986;2024-02-26T16:03:49;3.08;;;1.67;;
52136;SDS011;69622;49.570;10.986;2024-02-26T16:06:52;2.55;;;1.38;;
52136;SDS011;69622;49.570;10.986;2024-02-26T16:09:56;2.53;;;1.25;;
52136;SDS011;69622;49.570;10.986;2024-02-26T16:12:59;3.28;;;1.88;;
52136;SDS011;69622;49.570;10.986;2024-02-26T16:16:04;2.27;;;1.60;;
52136;SDS011;69622;49.570;10.986;2024-02-26T16:19:12;2.20;;;1.42;;
52136;SDS011;69622;49.570;10.986;2024-02-26T16:22:17;5.50;;;2.70;;
52136;SDS011;69622;49.570;10.986;2024-02-26T16:25:19;4.90;;;1.60;;
52136;SDS011;69622;49.570;10.986;2024-02-26T16:28:20;4.78;;;2.15;;
52136;SDS011;69622;49.570;10.986;2024-02-26T16:31:26;5.10;;;2.00;;
52136;SDS011;69622;49.570;10.986;2024-02-26T16:34:27;3.17;;;1.70;;
52136;SDS011;69622;49.570;10.986;2024-02-26T16:37:29;4.57;;;2.13;;
52136;SDS011;69622;49.570;10.986;2024-02-26T16:40:31;4.07;;;1.95;;
52136;SDS011;69622;49.570;10.986;2024-02-26T16:43:33;4.20;;;1.77;;
52136;SDS011;69622;49.570;10.986;2024-02-26T16:46:36;4.47;;;1.95;;
52136;SDS011;69622;49.570;10.986;2024-02-26T16:49:38;3.60;;;1.67;;
52136;SDS011;69622;49.570;10.986;2024-02-26T16:52:40;3.20;;;2.08;;
52136;SDS011;69622;49.570;10.986;2024-02-26T16:55:41;4.65;;;2.42;;
52136;SDS011;69622;49.570;10.986;2024-02-26T16:58:43;6.35;;;1.98;;
52136;SDS011;69622;49.570;10.986;2024-02-26T17:01:45;4.68;;;1.90;;
52136;SDS011;69622;49.570;10.986;2024-02-26T17:04:47;3.85;;;1.77;;
52136;SDS011;69622;49.570;10.986;2024-02-26T17:07:49;4.40;;;2.55;;
52136;SDS011;69622;49.570;10.986;2024-02-26T17:10:51;4.50;;;2.53;;
52136;SDS011;69622;49.570;10.986;2024-02-26T17:13:52;2.65;;;1.58;;
52136;SDS011;69622;49.570;10.986;2024-02-26T17:16:54;2.83;;;1.73;;
52136;SDS011;69622;49.570;10.986;2024-02-26T17:19:55;4.45;;;2.15;;
52136;SDS011;69622;49.570;10.986;2024-02-26T17:22:57;5.35;;;2.70;;
52136;SDS011;69622;49.570;10.986;2024-02-26T17:25:58;2.90;;;1.80;;
52136;SDS011;69622;49.570;10.986;2024-02-26T17:29:03;6.07;;;2.10;;
52136;SDS011;69622;49.570;10.986;2024-02-26T17:32:05;5.07;;;1.85;;
52136;SDS011;69622;49.570;10.986;2024-02-26T17:35:11;2.70;;;1.67;;
52136;SDS011;69622;49.570;10.986;2024-02-26T17:38:16;3.28;;;1.67;;
52136;SDS011;69622;49.570;10.986;2024-02-26T17:41:17;3.08;;;2.25;;
52136;SDS011;69622;49.570;10.986;2024-02-26T17:44:18;3.58;;;1.95;;
52136;SDS011;69622;49.570;10.986;2024-02-26T17:47:23;6.07;;;2.75;;
52136;SDS011;69622;49.570;10.986;2024-02-26T17:50:24;4.35;;;2.28;;
52136;SDS011;69622;49.570;10.986;2024-02-26T17:53:27;4.90;;;2.15;;
52136;SDS011;69622;49.570;10.986;2024-02-26T17:56:28;4.25;;;2.28;;
52136;SDS011;69622;49.570;10.986;2024-02-26T17:59:30;3.33;;;2.10;;
52136;SDS011;69622;49.570;10.986;2024-02-26T18:02:32;3.95;;;2.15;;